Aérodrome :
LOGIN :

S'inscrire | Disclaimer

   EN    FR    IT 

 










Légende :    VFR   VFR Marginal   IFR   IFR Intensif   IFR Très Intensif
Visi : 
Plafond : 
>= 8 km
>= 3000ft
5 à 8 km
1000 à 3000 ft
1500m à 5 km
500 à 1000 ft
800 à 1500m
200 à 500 ft
< 800m
< 200 ft
Symboles :   Orages  Brouillard  Fortes neiges  Fortes précipitations  Vent > 20 kt
SIGMETs :   Divers  Orages  Givrage  Turbulence  Onde Orograph.  Cendres Volcan.






- Altitude de l'aérodrome : 13 ft
- Code IATA : LYX


EGMD - Lydd

DERNIER METAR :
  • 250220Z AUTO 06005KT 9999 NCD 14/13 Q1017

METARs EXPIRÉS :
  • 250150Z AUTO 05004KT 9999 NCD 13/12 Q1017
  • 250120Z AUTO 05005KT 9999 NCD 14/13 Q1017
  • 250050Z AUTO 06005KT 9999 NCD 14/13 Q1017
  • 250020Z AUTO 07006KT 9999 NCD 15/13 Q1017
  • 242350Z AUTO 05006KT 9999 NCD 14/12 Q1018
  • 242320Z AUTO 06006KT 9999 NCD 15/13 Q1018
  • 242250Z AUTO 07007KT 9999 NCD 15/13 Q1018
  • 242150Z AUTO 08007KT 9999 NCD 16/14 Q1018

TAF TAF EGMD
Valide du 25 à 00h jusqu'au 25 à 09h UTC


242257Z 2500/2509 07005KT CAVOK
PROB40
TEMPO 2500/2507 6000
ATIS : +44 1797 322 422



MET'MAP, la Météo Aéronautique d'un coup d'oeil ! - Copyright ORBIFLY Décembre 2007 - Disclaimer

ORBIFLY MET'MAP TEAM :

Programmation & Développement : Alexandra Zaïnal
Sur une idée originale de : Baudouin d'Aumeries
Soutien technique & logistique : Manuel Goepfert
Assistance : Marc-Olivier Méhu




SOURCES & CREDITS :

   NOAA